Terminal Aerodrome Forecast
Issued by NWS

Home | Current Version | Previous Version | Text Only | Print | Product List | Glossary On
Versions: 1 2 3 4 5 6 7 8 9 10 11 12 13 14 15 16 17
000
FTUS44 KMAF 231300 CCA
TAFINK
TAF COR
KINK 231300Z 2313/2412 VRB04KT P6SM OVC005
      TEMPO 2313/2316 6SM BR OVC003
     FM231600 VRB03KT P6SM SKC
     FM231900 21004KT P6SM SCT045 SCT250
     FM240000 12005KT P6SM SKC
     FM241000 06004KT 6SM BR BKN035=

USA.gov is the U.S. government's official web portal to all federal, state and local government web resources and services.